Clearlake, California
Current Conditions -  °F | °C
As of 6:27 AM on Friday 31 Oct 2014 (Local Time) from KSTS Reporting Station
Overcast Overcast  
Wind Chill: 61°   Ceiling: 1400
Heat Index: 61°   Visibility: 10mi
Dew Point: 57°   Wind: 5mph
Humidity: 88%   Direction: 150°SSE
Pressure: 29.84"   Gusts: NA
Location:  38.95°N, 122.62°W
Report Text: KSTS 311327Z AUTO 15004KT 10SM OVC014 16/14 A2984 RMK AO2
Loading
Personal Weather Stations






























Interactive Weather Map
Tropical Storm Tracking
New forecast layout! Learn more

10-Day Weather Forecast

Advertisements
Track Severe Weather on mobile